Stunt Ranch Reserve, Santa Monica Mtns, California Weather observations

Data are for 10 minute period ending at time listed.
 Day   Time   Solar   Ave.   Ave.  Ave.  Vector  Max.   Baro.   Total    
  of    of     Rad.   Air    Rel.  Wind   Wind   Wind  Press.  Precip.   
Year   Day            Temp.  Hum.  Speed  Dir.   Gust                    
2015   (PST)  Kw/m2    F      %     mph   deg.    mph    mb.     in.     
-------------------------------------------------------------------------
  57   20:10   0.00   54.7    79    0.8   232     1.6   964.4    0.00 
  57   20:20   0.00   54.6    79    1.4   229     2.8   964.4    0.00 
  57   20:30   0.00   54.6    77    1.4   275     2.9   964.1    0.00 
  57   20:40   0.00   53.7    80    2.8   269     4.0   964.4    0.00 
  57   20:50   0.00   52.8    82    1.1   250     2.6   964.4    0.00 
  57   21:00   0.00   52.5    79    1.7   248     3.4   964.4    0.00 
  57   21:10   0.00   51.9    83    0.3   260     2.0   964.4    0.00 
  57   21:20   0.00   52.2    82    3.2   119     4.8   964.4    0.00 
  57   21:30   0.00   52.4    79    4.9   136     7.5   964.4    0.00 
  57   21:40   0.00   53.1    73    4.0   122     7.2   964.1    0.00 
  57   21:50   0.00   53.6    69    1.7   263     3.4   964.4    0.00 
  57   22:00   0.00   52.7    74    1.8   279     5.3   964.4    0.00 
  57   22:10   0.00   51.1    72    3.7   141     6.4   964.4    0.00 
  57   22:20   0.00   53.1    64    1.1   164     3.9   964.1    0.00 
  57   22:30   0.00   51.9    66    2.8   134     4.9   964.1    0.00 
  57   22:40   0.00   51.9    66    2.2   151     4.5   964.1    0.00 
  57   22:50   0.00   50.9    67    3.7   150     5.6   964.1    0.00 
  57   23:00   0.00   52.6    60    2.9   188     4.7   964.1    0.00 
  57   23:10   0.00   52.7    61    1.1   159     3.5   963.8    0.00 
  57   23:20   0.00   52.8    58    2.0   151     3.4   963.8    0.00 
  57   23:30   0.00   53.7    55    1.4   238     3.1   963.8    0.00 
  57   23:40   0.00   52.9    58    0.5   292     2.1   963.8    0.00 
  57   23:50   0.00   52.1    61    0.8   329     1.9   963.8    0.00 
  58    0:00   0.00   51.7    59    1.4   116     2.0   963.4    0.00 
  58    0:10   0.00   51.9    59    1.9   255     4.2   963.4    0.00 
  58    0:20   0.00   52.2    59    0.9   255     2.4   963.4    0.00 
  58    0:30   0.00   52.6    58    1.0   261     3.4   963.4    0.00 
  58    0:40   0.00   51.6    62    1.2   240     2.6   963.8    0.00 
  58    0:50   0.00   51.2    62    1.1    96     2.5   963.4    0.00 
  58    1:00   0.00   51.8    61    0.7   132     3.4   963.4    0.00 
  58    1:10   0.00   52.1    58    3.2   156     5.0   963.1    0.00 
  58    1:20   0.00   52.5    57    3.2   223     6.0   962.8    0.00 
  58    1:30   0.00   52.1    59    1.7   190     3.3   963.1    0.00 
  58    1:40   0.00   51.3    59    0.9   158     2.5   963.1    0.00 
  58    1:50   0.00   51.4    59    1.1   290     2.6   963.1    0.00 
  58    2:00   0.00   51.2    60    1.2   135     2.8   963.1    0.00 
  58    2:10   0.00   51.7    59    2.0   113     4.0   963.1    0.00 
  58    2:20   0.00   51.4    60    1.1   324     3.0   963.1    0.00 
  58    2:30   0.00   50.1    63    0.6     8     2.6   963.1    0.00 
  58    2:40   0.00   48.2    70    0.8   246     2.9   962.8    0.00 
  58    2:50   0.00   46.7    74    1.4   217     2.2   962.8    0.00 
  58    3:00   0.00   46.6    75    1.9   108     3.7   962.8    0.00 
  58    3:10   0.00   46.8    74    2.6   138     4.5   962.8    0.00 
  58    3:20   0.00   48.2    74    2.3   200     3.7   962.4    0.00 
  58    3:30   0.00   48.6    75    1.9   160     4.9   962.4    0.00 
  58    3:40   0.00   48.6    75    2.9   147     4.8   962.4    0.00 
  58    3:50   0.00   49.4    74    2.2   143     3.9   962.4    0.00 
  58    4:00   0.00   49.5    74    2.3   125     4.2   962.4    0.00 
  58    4:10   0.00   49.4    75    0.9    82     3.0   962.4    0.00 
  58    4:20   0.00   48.8    77    1.3   273     2.3   962.4    0.00 
  58    4:30   0.00   48.1    80    0.9   262     2.9   962.4    0.00 
  58    4:40   0.00   47.6    82    1.5   246     3.7   962.4    0.00 
  58    4:50   0.00   46.6    86    2.3   200     4.2   962.8    0.00 
  58    5:00   0.00   46.8    90    1.5   266     3.4   962.8    0.00 
  58    5:10   0.00   47.1    92    2.2   249     3.0   963.1    0.00 
  58    5:20   0.00   47.2    92    0.8   246     2.6   963.1    0.00 
  58    5:30   0.00   46.7    91    1.8   169     4.6   963.1    0.00 
  58    5:40   0.00   47.0    93    4.2   130     7.6   963.1    0.00 
  58    5:50   0.00   47.5    93    1.5   159     3.7   963.1    0.00 
  58    6:00   0.00   47.0    92    2.7   175     5.5   962.8    0.00 
  58    6:10   0.00   46.8    93    2.3   210     5.2   962.8    0.00 
  58    6:20   0.00   47.1    93    3.7   148     8.6   962.8    0.00 
  58    6:30   0.00   48.2    93    2.5   135     7.2   962.8    0.00 
  58    6:40   0.01   48.5    92    2.8   203     4.8   962.8    0.00 
  58    6:50   0.01   48.1    91    0.9    90     2.7   962.8    0.00 
  58    7:00   0.02   48.4    92    0.2   288     1.1   963.1    0.00 
  58    7:10   0.03   48.1    92    0.1   311     1.0   963.1    0.00 
  58    7:20   0.04   48.3    92    1.2   128     2.7   963.1    0.00 
  58    7:30   0.04   48.9    92    0.3   322     1.5   963.4    0.00 
  58    7:40   0.07   48.9    92    1.5   116     2.0   963.4    0.00 
  58    7:50   0.08   49.5    92    1.8   115     2.7   963.8    0.00 
  58    8:00   0.10   50.7    91    0.8   100     1.7   963.4    0.00 
  58    8:10   0.10   51.3    89    0.7   313     1.5   963.8    0.00 
  58    8:20   0.15   51.8    87    0.2   269     1.2   963.8    0.00 
  58    8:30   0.34   53.8    84    1.6   295     3.9   963.8    0.00 
  58    8:40   0.26   55.3    78    1.4   301     3.7   964.1    0.00 
  58    8:50   0.18   54.2    81    1.1   300     2.7   964.4    0.00 
  58    9:00   0.17   53.6    83    1.0   296     2.9   964.8    0.00 
  58    9:10   0.15   54.7    82    1.1   282     3.1   964.8    0.00 
  58    9:20   0.22   54.9    82    1.3   310     2.7   964.8    0.00 
  58    9:30   0.21   55.3    80    1.4   275     2.9   964.8    0.00 
  58    9:40   0.23   56.0    80    0.6   286     2.0   964.8    0.00 
  58    9:50   0.10   56.2    78    2.8   275     5.3   964.8    0.00 
  58   10:00   0.12   55.6    80    2.0   280     3.4   964.8    0.00 
  58   10:10   0.14   55.7    80    2.4   276     3.9   964.8    0.00 
  58   10:20   0.25   56.2    78    1.3   217     3.5   964.8    0.00 
  58   10:30   0.50   57.4    75    2.2   117     7.2   964.8    0.00 
  58   10:40   0.43   58.6    71    2.2   153     7.0   964.4    0.00 
  58   10:50   0.33   59.3    68    1.0   320     5.6   964.4    0.00 
  58   11:00   0.27   59.9    67    1.9   297     4.4   964.1    0.00 
  58   11:10   0.29   60.2    64    2.3   286     4.7   964.1    0.00 
  58   11:20   0.28   61.0    64    2.3   283     5.4   964.1    0.00 
  58   11:30   0.29   61.0    66    2.4   294     6.7   964.1    0.00 
  58   11:40   0.28   60.9    67    2.7   298     6.4   964.1    0.00 
  58   11:50   0.27   61.0    67    2.3   302     4.5   964.1    0.00 
  58   12:00   0.30   60.1    67    1.3   342     3.9   963.8    0.00 
  58   12:10   0.26   60.0    68    1.3   315     5.0   963.8    0.00 
  58   12:20   0.23   59.8    68    3.4   181     6.9   963.4    0.00 
  58   12:30   0.28   59.0    68    5.4   166     9.6   963.4    0.00 
  58   12:40   0.34   58.7    68    4.4   157     8.8   963.1    0.00 
  58   12:50   0.51   60.4    66    4.5   165    14.5   962.8    0.00 
  58   13:00   0.39   60.3    65    3.9   201     9.6   962.8    0.00 
  58   13:10   0.28   59.6    67    2.8   207     8.8   962.8    0.00 
  58   13:20   0.25   59.3    68    2.9   168    10.4   962.8    0.00 
  58   13:30   0.44   59.2    70    3.4   183    11.9   962.4    0.00 
  58   13:40   0.39   60.6    67    2.5   233     7.3   962.4    0.00 
  58   13:50   0.33   59.4    70    3.2   190     8.9   962.4    0.00 
  58   14:00   0.49   59.9    70    2.8   218     8.7   962.1    0.00 
  58   14:10   0.40   61.0    68    1.4   115     3.7   962.1    0.00 
  58   14:20   0.29   60.4    70    1.8     7     5.3   962.1    0.00 
  58   14:30   0.12   58.9    73    2.0   218     6.1   961.7    0.00 
  58   14:40   0.20   57.7    75    2.5   176     6.2   962.1    0.00 
  58   14:50   0.25   58.0    75    2.6   150     5.4   961.7    0.00 
  58   15:00   0.16   58.3    74    2.6   202     6.4   961.7    0.00 
  58   15:10   0.11   57.9    73    2.8   208     7.5   961.7    0.00 
  58   15:20   0.13   57.7    74    3.7   213     8.3   961.7    0.00 
  58   15:30   0.14   57.5    75    2.6   197     9.1   961.7    0.00 
  58   15:40   0.15   57.5    76    1.9   200     5.6   961.7    0.00 
  58   15:50   0.12   57.3    77    3.8   172     9.4   961.7    0.00 
  58   16:00   0.10   56.2    79    4.4   185     9.7   961.4    0.00 
  58   16:10   0.09   56.4    78    1.5     9     5.3   961.4    0.00 
  58   16:20   0.08   56.2    76    2.7    13     4.9   961.4    0.00 
  58   16:30   0.05   56.5    75    2.5   339     5.1   961.4    0.00 
  58   16:40   0.04   56.6    74    0.2    21     1.5   961.4    0.00 
  58   16:50   0.03   56.2    73    0.9    75     2.9   961.4    0.00 
  58   17:00   0.03   56.3    75    0.5   314     1.8   961.4    0.00 
  58   17:10   0.03   56.3    75    0.7   310     2.0   961.4    0.00 
  58   17:20   0.01   56.2    76    0.7   283     2.5   961.4    0.00 
  58   17:30   0.01   55.9    77    1.1   267     3.3   961.4    0.00 
  58   17:40   0.01   55.6    78    0.8   268     2.9   961.4    0.00 
  58   17:50   0.01   55.5    80    0.1   340     1.2   961.4    0.00 
  58   18:00   0.00   55.4    79    0.7    49     2.6   961.1    0.00 
  58   18:10   0.00   55.1    80    1.9   114     2.6   961.1    0.00 
  58   18:20   0.00   54.7    81    2.6   117     3.4   960.7    0.00 
  58   18:30   0.00   54.4    82    2.0   106     3.9   960.7    0.00 
  58   18:40   0.00   54.2    84    2.3   162     4.0   960.7    0.00 
  58   18:50   0.00   53.8    84    3.6   250     4.9   960.7    0.00 
  58   19:00   0.00   53.6    85    2.2   260     3.8   960.7    0.00 
  58   19:10   0.00   53.1    85    2.0   125     4.1   960.7    0.00 
  58   19:20   0.00   52.6    86    2.9   141     4.2   960.7    0.00 
  58   19:30   0.00   52.4    86    2.9   120     3.7   960.7    0.00 
  58   19:40   0.00   52.7    85    1.3   137     2.9   960.7    0.00 
  58   19:50   0.00   52.7    85    1.8   182     3.0   960.7    0.00 
  58   20:00   0.00   53.2    84    0.9   201     2.5   960.7    0.00 

Return to Stunt Ranch Reserve graphs page.


Western Regional Climate Center,wrcc@dri.edu